createdAt,value
2022-10-20T00:01:17.712Z,98827.97
2022-10-20T00:03:45.955Z,98821.25
2022-10-20T00:06:23.723Z,98824.50
2022-10-20T00:08:50.793Z,98830.66
2022-10-20T00:11:21.064Z,98826.19
2022-10-20T00:13:50.279Z,98832.84
2022-10-20T00:16:18.046Z,98827.81
2022-10-20T00:18:45.120Z,98826.19
2022-10-20T00:21:21.634Z,98820.38
2022-10-20T00:23:48.387Z,98816.44
2022-10-20T00:26:26.688Z,98820.16
2022-10-20T00:28:54.680Z,98822.97
2022-10-20T00:31:23.871Z,98817.53
2022-10-20T00:33:50.640Z,98818.06
2022-10-20T00:36:19.753Z,98811.81
2022-10-20T00:38:47.187Z,98794.88
2022-10-20T00:41:18.003Z,98788.34
2022-10-20T00:43:46.439Z,98783.63
2022-10-20T00:46:21.468Z,98773.44
2022-10-20T00:49:00.620Z,98771.66
2022-10-20T00:51:30.614Z,98768.28
2022-10-20T00:54:23.114Z,98771.50
2022-10-20T00:56:51.580Z,98760.84
2022-10-20T00:59:22.779Z,98754.91
2022-10-20T01:01:49.826Z,98760.91
2022-10-20T01:04:17.539Z,98760.00
2022-10-20T01:06:44.044Z,98755.06
2022-10-20T01:09:11.001Z,98764.72
2022-10-20T01:12:14.915Z,98767.34
2022-10-20T01:15:00.145Z,98746.94
2022-10-20T01:17:40.979Z,98742.28
2022-10-20T01:20:31.926Z,98729.84
2022-10-20T01:23:22.510Z,98731.03
2022-10-20T01:26:19.206Z,98733.06
2022-10-20T01:28:58.500Z,98726.47
2022-10-20T01:31:57.639Z,98722.25
2022-10-20T01:34:50.519Z,98715.78
2022-10-20T01:37:49.065Z,98723.25
2022-10-20T01:40:28.574Z,98724.44
2022-10-20T01:43:01.744Z,98721.97
2022-10-20T01:45:34.274Z,98725.16
2022-10-20T01:48:06.527Z,98714.28
2022-10-20T01:50:39.752Z,98713.06
2022-10-20T01:53:07.166Z,98708.13
2022-10-20T01:55:35.268Z,98705.31
2022-10-20T01:58:11.861Z,98691.09
2022-10-20T02:00:39.839Z,98687.84
2022-10-20T02:03:43.138Z,98683.47
2022-10-20T02:06:42.082Z,98684.22
2022-10-20T02:09:17.895Z,98676.91
2022-10-20T02:12:02.152Z,98674.00
2022-10-20T02:14:29.797Z,98681.78
2022-10-20T02:17:04.042Z,98680.63
2022-10-20T02:19:38.335Z,98672.81
2022-10-20T02:22:07.670Z,98672.31
2022-10-20T02:24:40.510Z,98676.53
2022-10-20T02:27:18.215Z,98670.94
2022-10-20T02:29:54.638Z,98666.84
2022-10-20T02:32:24.454Z,98659.16
2022-10-20T02:34:51.220Z,98657.38
2022-10-20T02:39:49.051Z,98644.53
2022-10-20T02:42:17.161Z,98631.22
2022-10-20T02:44:43.830Z,98638.63
2022-10-20T02:47:10.388Z,98630.31
2022-10-20T02:49:36.841Z,98630.09
2022-10-20T02:52:03.410Z,98633.84
2022-10-20T02:54:29.863Z,98633.09
2022-10-20T02:56:56.375Z,98634.03
2022-10-20T02:59:22.817Z,98630.09
2022-10-20T03:01:51.115Z,98632.72
2022-10-20T03:04:18.091Z,98631.09
2022-10-20T03:06:44.805Z,98629.69
2022-10-20T03:09:11.303Z,98637.31
2022-10-20T03:11:37.751Z,98637.88
2022-10-20T03:14:04.237Z,98640.09
2022-10-20T03:16:30.686Z,98629.69
2022-10-20T03:19:00.033Z,98627.31
2022-10-20T03:21:29.937Z,98616.22
2022-10-20T03:23:56.378Z,98613.38
2022-10-20T03:26:22.806Z,98612.72
2022-10-20T03:28:49.285Z,98612.28
2022-10-20T03:31:15.829Z,98617.41
2022-10-20T03:33:42.488Z,98608.63
2022-10-20T03:36:09.639Z,98604.97
2022-10-20T03:38:36.086Z,98605.25
2022-10-20T03:41:03.179Z,98603.34
2022-10-20T03:43:29.616Z,98593.94
2022-10-20T03:46:05.831Z,98582.56
2022-10-20T03:48:33.082Z,98583.56
2022-10-20T03:51:01.943Z,98586.38
2022-10-20T03:53:29.007Z,98586.53
2022-10-20T03:55:55.630Z,98592.84
2022-10-20T03:58:22.283Z,98591.63
2022-10-20T04:00:49.692Z,98587.59
2022-10-20T04:03:16.588Z,98585.13
2022-10-20T04:05:43.045Z,98580.81
2022-10-20T04:08:09.525Z,98574.97
2022-10-20T04:10:36.297Z,98574.06
2022-10-20T04:13:03.751Z,98569.56
2022-10-20T04:15:30.715Z,98576.31
2022-10-20T04:17:57.356Z,98561.13
2022-10-20T04:20:24.054Z,98552.03
2022-10-20T04:22:50.905Z,98554.38
2022-10-20T04:25:18.133Z,98554.84
2022-10-20T04:27:44.716Z,98551.13
2022-10-20T04:30:11.782Z,98553.28
2022-10-20T04:32:38.269Z,98545.41
2022-10-20T04:35:05.488Z,98548.22
2022-10-20T04:37:31.938Z,98546.53
2022-10-20T04:39:58.507Z,98547.47
2022-10-20T04:42:25.060Z,98539.78
2022-10-20T04:44:51.551Z,98533.50
2022-10-20T04:47:18.027Z,98529.28
2022-10-20T04:49:44.469Z,98534.16
2022-10-20T04:52:10.994Z,98537.91
2022-10-20T04:54:37.503Z,98532.47
2022-10-20T04:57:05.962Z,98514.47
2022-10-20T04:59:32.805Z,98510.06
2022-10-20T05:01:59.411Z,98509.78
2022-10-20T05:04:26.087Z,98513.72
2022-10-20T05:06:52.543Z,98493.25
2022-10-20T05:09:19.509Z,98492.06
2022-10-20T05:11:46.306Z,98480.50
2022-10-20T05:14:13.000Z,98478.63
2022-10-20T05:16:39.571Z,98476.09
2022-10-20T05:19:06.024Z,98468.13
2022-10-20T05:21:33.307Z,98460.91
2022-10-20T05:24:03.488Z,98457.22
2022-10-20T05:26:36.419Z,98455.38
2022-10-20T05:29:07.093Z,98457.88
2022-10-20T05:31:42.227Z,98464.91
2022-10-20T05:34:10.629Z,98471.13
2022-10-20T05:36:37.319Z,98466.81
2022-10-20T05:39:04.152Z,98465.09
2022-10-20T05:41:36.456Z,98445.41
2022-10-20T05:44:10.802Z,98444.84
2022-10-20T05:46:41.022Z,98444.25
2022-10-20T05:49:12.511Z,98440.50
2022-10-20T05:51:39.038Z,98429.81
2022-10-20T05:54:05.505Z,98435.50
2022-10-20T05:56:33.443Z,98440.22
2022-10-20T05:58:59.909Z,98434.41
2022-10-20T06:01:39.756Z,98422.75
2022-10-20T06:04:10.731Z,98427.00
2022-10-20T06:06:37.167Z,98435.19
2022-10-20T06:09:07.554Z,98438.84
2022-10-20T06:11:38.391Z,98437.63
2022-10-20T06:14:06.106Z,98450.75
2022-10-20T06:16:32.759Z,98456.25
2022-10-20T06:19:00.090Z,98457.75
2022-10-20T06:21:31.037Z,98464.84
2022-10-20T06:24:04.509Z,98472.81
2022-10-20T06:26:36.534Z,98469.03
2022-10-20T06:29:10.882Z,98484.63
2022-10-20T06:31:50.053Z,98486.50
2022-10-20T06:34:27.372Z,98479.19
2022-10-20T06:36:53.945Z,98482.09
2022-10-20T06:39:24.284Z,98479.38
2022-10-20T06:41:54.138Z,98467.06
2022-10-20T06:44:23.928Z,98459.19
2022-10-20T06:46:54.489Z,98453.25
2022-10-20T06:49:21.352Z,98459.06
2022-10-20T06:51:47.868Z,98467.69
2022-10-20T06:54:14.503Z,98473.28
2022-10-20T06:56:41.189Z,98477.88
2022-10-20T06:59:07.711Z,98478.31
2022-10-20T07:01:38.225Z,98487.59
2022-10-20T07:04:14.948Z,98487.19
2022-10-20T07:06:43.884Z,98489.03
2022-10-20T07:09:19.430Z,98490.63
2022-10-20T07:11:50.010Z,98490.03
2022-10-20T07:14:16.497Z,98486.38
2022-10-20T07:16:43.008Z,98486.50
2022-10-20T07:19:09.821Z,98480.22
2022-10-20T07:21:39.173Z,98486.56
2022-10-20T07:24:09.454Z,98483.38
2022-10-20T07:26:39.440Z,98484.44
2022-10-20T07:29:06.402Z,98471.19
2022-10-20T07:31:45.636Z,98474.22
2022-10-20T07:34:30.467Z,98473.69
2022-10-20T07:36:57.938Z,98474.22
2022-10-20T07:39:24.994Z,98475.91
2022-10-20T07:41:51.848Z,98473.69
2022-10-20T07:44:18.768Z,98490.13
2022-10-20T07:46:45.466Z,98488.34
2022-10-20T07:51:58.584Z,98494.44
2022-10-20T07:54:25.215Z,98481.38
2022-10-20T07:56:51.787Z,98472.84
2022-10-20T07:59:18.295Z,98479.16
2022-10-20T08:01:44.895Z,98482.75
2022-10-20T08:04:11.757Z,98468.22
2022-10-20T08:06:39.225Z,98461.75
2022-10-20T08:09:07.082Z,98447.72
2022-10-20T08:11:33.799Z,98442.38
2022-10-20T08:14:00.285Z,98440.78
2022-10-20T08:16:26.880Z,98428.44
2022-10-20T08:19:02.808Z,98426.22
2022-10-20T08:21:29.324Z,98422.94
2022-10-20T08:23:56.028Z,98428.44
2022-10-20T08:26:25.712Z,98415.25
2022-10-20T08:28:54.774Z,98417.03
2022-10-20T08:31:22.180Z,98419.69
2022-10-20T08:33:52.687Z,98421.63
2022-10-20T08:36:21.135Z,98425.00
2022-10-20T08:38:48.558Z,98418.31
2022-10-20T08:41:21.442Z,98425.78
2022-10-20T08:43:51.815Z,98429.88
2022-10-20T08:46:25.380Z,98417.53
2022-10-20T08:48:52.765Z,98413.06
2022-10-20T08:51:24.592Z,98418.59
2022-10-20T08:53:57.118Z,98421.25
2022-10-20T08:56:27.421Z,98406.28
2022-10-20T08:58:54.495Z,98414.47
2022-10-20T09:01:24.573Z,98408.72
2022-10-20T09:04:19.885Z,98409.69
2022-10-20T09:06:54.939Z,98399.41
2022-10-20T09:09:24.280Z,98397.22
2022-10-20T09:11:55.475Z,98395.94
2022-10-20T09:14:21.935Z,98393.28
2022-10-20T09:16:59.793Z,98378.31
2022-10-20T09:19:28.594Z,98374.47
2022-10-20T09:22:01.650Z,98387.44
2022-10-20T09:24:30.625Z,98378.81
2022-10-20T09:27:18.564Z,98389.84
2022-10-20T09:29:45.478Z,98399.94
2022-10-20T09:32:52.447Z,98404.03
2022-10-20T09:35:15.001Z,98394.19
2022-10-20T09:37:49.592Z,98415.06
2022-10-20T09:40:18.244Z,98411.72
2022-10-20T09:43:03.070Z,98403.31
2022-10-20T09:45:35.090Z,98401.16
2022-10-20T09:48:21.486Z,98389.25
2022-10-20T09:50:56.962Z,98394.91
2022-10-20T09:53:32.311Z,98401.88
2022-10-20T09:55:59.202Z,98402.09
2022-10-20T09:58:37.863Z,98403.06
2022-10-20T10:01:14.232Z,98395.28
2022-10-20T10:03:47.645Z,98390.81
2022-10-20T10:06:38.675Z,98396.56
2022-10-20T10:09:34.936Z,98414.84
2022-10-20T10:12:10.311Z,98408.34
2022-10-20T10:14:36.922Z,98397.41
2022-10-20T10:17:03.791Z,98400.88
2022-10-20T10:19:33.963Z,98402.97
2022-10-20T10:22:03.610Z,98408.72
2022-10-20T10:24:43.320Z,98409.66
2022-10-20T10:27:32.581Z,98402.44
2022-10-20T10:30:31.676Z,98419.88
2022-10-20T10:32:58.314Z,98407.38
2022-10-20T10:35:32.319Z,98406.53
2022-10-20T10:38:00.782Z,98416.03
2022-10-20T10:41:00.211Z,98416.88
2022-10-20T10:43:47.891Z,98423.22
2022-10-20T10:49:30.480Z,98422.53
2022-10-20T10:52:20.065Z,98418.44
2022-10-20T10:54:57.996Z,98405.94
2022-10-20T10:57:32.215Z,98400.19
2022-10-20T11:00:17.229Z,98401.25
2022-10-20T11:03:39.807Z,98390.53
2022-10-20T11:06:36.905Z,98383.94
2022-10-20T11:09:20.601Z,98379.75
2022-10-20T11:12:29.655Z,98376.63
2022-10-20T11:15:16.107Z,98378.91
2022-10-20T11:18:07.361Z,98392.63
2022-10-20T11:20:59.848Z,98384.56
2022-10-20T11:24:08.254Z,98361.84
2022-10-20T11:26:52.103Z,98346.81
2022-10-20T11:29:45.252Z,98340.38
2022-10-20T11:32:14.600Z,98349.47
2022-10-20T11:34:58.742Z,98336.97
2022-10-20T11:37:31.365Z,98319.78
2022-10-20T11:40:07.632Z,98325.03
2022-10-20T11:43:11.048Z,98340.25
2022-10-20T11:45:57.367Z,98354.06
2022-10-20T11:48:38.622Z,98341.53
2022-10-20T11:51:59.541Z,98362.44
2022-10-20T11:54:43.594Z,98371.59
2022-10-20T11:57:29.339Z,98365.69
2022-10-20T12:00:44.404Z,98357.91
2022-10-20T12:03:16.808Z,98365.81
2022-10-20T12:06:14.441Z,98369.06
2022-10-20T12:09:03.743Z,98379.53
2022-10-20T12:11:54.666Z,98381.19
2022-10-20T12:14:30.261Z,98375.16
2022-10-20T12:17:12.846Z,98381.38
2022-10-20T12:19:40.344Z,98371.63
2022-10-20T12:22:29.221Z,98363.19
2022-10-20T12:24:55.573Z,98354.84
2022-10-20T12:27:29.945Z,98355.53
2022-10-20T12:30:05.364Z,98368.41
2022-10-20T12:32:52.394Z,98358.91
2022-10-20T12:35:18.890Z,98351.41
2022-10-20T12:37:58.017Z,98356.38
2022-10-20T12:40:51.683Z,98352.66
2022-10-20T12:43:33.390Z,98344.44
2022-10-20T12:46:09.971Z,98339.50
2022-10-20T12:48:56.401Z,98335.72
2022-10-20T12:51:52.023Z,98326.66
2022-10-20T12:54:34.548Z,98330.50
2022-10-20T12:57:23.484Z,98330.97
2022-10-20T12:59:49.976Z,98320.00
2022-10-20T13:02:23.022Z,98324.94
2022-10-20T13:05:00.305Z,98314.56
2022-10-20T13:07:48.530Z,98318.19
2022-10-20T13:10:30.039Z,98306.38
2022-10-20T13:13:02.479Z,98299.72
2022-10-20T13:15:42.856Z,98298.28
2022-10-20T13:18:19.849Z,98287.34
2022-10-20T13:20:59.932Z,98272.81
2022-10-20T13:23:36.603Z,98264.53
2022-10-20T13:26:44.442Z,98288.47
2022-10-20T13:29:34.540Z,98282.97
2022-10-20T13:32:26.184Z,98262.84
2022-10-20T13:35:20.726Z,98270.16
2022-10-20T13:38:18.533Z,98287.09
2022-10-20T13:41:18.917Z,98285.22
2022-10-20T13:44:11.733Z,98286.91
2022-10-20T13:47:10.327Z,98292.59
2022-10-20T13:49:58.898Z,98291.81
2022-10-20T13:52:31.195Z,98283.84
2022-10-20T13:55:00.656Z,98282.09
2022-10-20T13:57:31.385Z,98278.56
2022-10-20T14:00:26.850Z,98291.38
2022-10-20T14:03:03.263Z,98291.78
2022-10-20T14:05:38.164Z,98289.16
2022-10-20T14:08:14.974Z,98286.59
2022-10-20T14:11:11.047Z,98287.16
2022-10-20T14:13:37.978Z,98290.81
2022-10-20T14:16:15.238Z,98289.69
2022-10-20T14:18:41.710Z,98283.31
2022-10-20T14:21:19.549Z,98292.34
2022-10-20T14:23:50.649Z,98292.56
2022-10-20T14:26:22.686Z,98294.34
2022-10-20T14:28:51.911Z,98287.81
2022-10-20T14:31:23.345Z,98293.25
2022-10-20T14:33:52.534Z,98296.06
2022-10-20T14:36:25.248Z,98295.50
2022-10-20T14:38:55.911Z,98289.34
2022-10-20T14:41:29.166Z,98302.41
2022-10-20T14:44:06.449Z,98290.16
2022-10-20T14:46:46.917Z,98296.16
2022-10-20T14:49:29.286Z,98284.69
2022-10-20T14:52:01.221Z,98273.13
2022-10-20T14:54:36.965Z,98273.13
2022-10-20T14:57:09.607Z,98274.59
2022-10-20T14:59:50.639Z,98273.19
2022-10-20T15:02:27.187Z,98269.84
2022-10-20T15:04:53.603Z,98280.38
2022-10-20T15:07:34.873Z,98274.22
2022-10-20T15:10:15.237Z,98278.38
2022-10-20T15:12:46.118Z,98262.75
2022-10-20T15:15:12.465Z,98264.47
2022-10-20T15:17:47.913Z,98273.00
2022-10-20T15:20:37.339Z,98258.91
2022-10-20T15:23:15.144Z,98249.78
2022-10-20T15:26:06.183Z,98246.00
2022-10-20T15:28:44.821Z,98254.84
2022-10-20T15:31:13.955Z,98261.09
2022-10-20T15:33:41.366Z,98255.47
2022-10-20T15:36:21.215Z,98233.47
2022-10-20T15:38:51.200Z,98241.69
2022-10-20T15:41:22.996Z,98239.59
2022-10-20T15:43:49.481Z,98231.38
2022-10-20T15:46:18.050Z,98220.53
2022-10-20T15:48:44.928Z,98228.34
2022-10-20T15:51:22.399Z,98218.47
2022-10-20T15:53:49.841Z,98213.63
2022-10-20T15:56:19.679Z,98227.22
2022-10-20T15:58:47.206Z,98217.63
2022-10-20T16:01:16.742Z,98219.03
2022-10-20T16:03:44.444Z,98200.41
2022-10-20T16:06:15.824Z,98195.25
2022-10-20T16:08:44.305Z,98199.03
2022-10-20T16:11:14.799Z,98208.06
2022-10-20T16:13:42.189Z,98201.81
2022-10-20T16:16:16.980Z,98206.84
2022-10-20T16:18:43.563Z,98201.19
2022-10-20T16:21:10.216Z,98198.09
2022-10-20T16:23:42.126Z,98198.91
2022-10-20T16:26:13.579Z,98205.09
2022-10-20T16:28:40.277Z,98210.16
2022-10-20T16:31:14.032Z,98209.38
2022-10-20T16:33:41.131Z,98199.69
2022-10-20T16:36:11.483Z,98203.56
2022-10-20T16:38:40.209Z,98207.78
2022-10-20T16:41:11.837Z,98210.91
2022-10-20T16:43:44.286Z,98207.91
2022-10-20T16:46:13.492Z,98211.00
2022-10-20T16:48:42.580Z,98206.09
2022-10-20T16:51:12.212Z,98213.91
2022-10-20T16:53:39.153Z,98212.81
2022-10-20T16:56:06.961Z,98203.22
2022-10-20T16:58:33.743Z,98210.19
2022-10-20T17:01:09.593Z,98207.31
2022-10-20T17:03:40.885Z,98195.69
2022-10-20T17:06:08.606Z,98199.16
2022-10-20T17:08:37.185Z,98203.97
2022-10-20T17:11:07.053Z,98197.00
2022-10-20T17:13:35.592Z,98203.38
2022-10-20T17:16:09.739Z,98193.44
2022-10-20T17:18:36.737Z,98202.56
2022-10-20T17:21:03.627Z,98204.59
2022-10-20T17:23:41.792Z,98198.56
2022-10-20T17:26:15.150Z,98201.56
2022-10-20T17:28:41.911Z,98199.53
2022-10-20T17:31:13.234Z,98207.56
2022-10-20T17:33:40.756Z,98204.56
2022-10-20T17:36:08.664Z,98210.56
2022-10-20T17:38:35.888Z,98216.16
2022-10-20T17:41:04.642Z,98215.25
2022-10-20T17:43:31.347Z,98218.47
2022-10-20T17:46:04.980Z,98225.16
2022-10-20T17:48:32.095Z,98227.41
2022-10-20T17:51:24.236Z,98231.03
2022-10-20T17:53:53.183Z,98230.47
2022-10-20T17:56:31.215Z,98238.75
2022-10-20T17:59:02.837Z,98220.69
2022-10-20T18:01:36.384Z,98217.66
2022-10-20T18:04:08.210Z,98209.53
2022-10-20T18:06:36.324Z,98209.66
2022-10-20T18:09:11.862Z,98204.84
2022-10-20T18:11:43.250Z,98207.25
2022-10-20T18:14:09.796Z,98208.44
2022-10-20T18:16:39.392Z,98203.16
2022-10-20T18:19:07.610Z,98211.94
2022-10-20T18:21:34.320Z,98206.94
2022-10-20T18:24:05.748Z,98212.31
2022-10-20T18:26:36.291Z,98208.56
2022-10-20T18:29:06.769Z,98206.41
2022-10-20T18:31:36.195Z,98205.44
2022-10-20T18:34:08.995Z,98204.16
2022-10-20T18:36:40.417Z,98201.88
2022-10-20T18:39:10.666Z,98196.16
2022-10-20T18:41:40.893Z,98195.78
2022-10-20T18:44:12.448Z,98202.63
2022-10-20T18:46:39.884Z,98204.31
2022-10-20T18:49:08.548Z,98189.56
2022-10-20T18:51:36.442Z,98191.13
2022-10-20T18:54:05.388Z,98192.56
2022-10-20T18:56:31.933Z,98188.97
2022-10-20T18:59:03.287Z,98182.75
2022-10-20T19:01:33.645Z,98174.13
2022-10-20T19:04:01.279Z,98173.41
2022-10-20T19:06:43.694Z,98170.66
2022-10-20T19:09:14.724Z,98163.06
2022-10-20T19:11:43.285Z,98160.94
2022-10-20T19:14:11.393Z,98164.50
2022-10-20T19:16:39.376Z,98164.88
2022-10-20T19:19:08.058Z,98157.78
2022-10-20T19:21:36.117Z,98165.25
2022-10-20T19:24:11.517Z,98171.72
2022-10-20T19:26:43.689Z,98162.59
2022-10-20T19:29:15.485Z,98159.59
2022-10-20T19:31:52.710Z,98156.50
2022-10-20T19:34:30.216Z,98146.41
2022-10-20T19:36:57.367Z,98137.44
2022-10-20T19:39:34.783Z,98136.47
2022-10-20T19:42:04.071Z,98134.56
2022-10-20T19:44:31.295Z,98140.81
2022-10-20T19:46:57.929Z,98144.97
2022-10-20T19:49:25.341Z,98138.41
2022-10-20T19:51:52.422Z,98135.75
2022-10-20T19:54:19.391Z,98140.56
2022-10-20T19:56:46.137Z,98134.56
2022-10-20T19:59:12.816Z,98140.06
2022-10-20T20:01:39.640Z,98146.69
2022-10-20T20:04:06.586Z,98137.66
2022-10-20T20:06:35.026Z,98128.09
2022-10-20T20:09:07.082Z,98126.78
2022-10-20T20:11:36.351Z,98121.75
2022-10-20T20:14:08.655Z,98108.44
2022-10-20T20:16:35.276Z,98106.53
2022-10-20T20:19:02.142Z,98102.09
2022-10-20T20:21:28.834Z,98095.63
2022-10-20T20:24:00.545Z,98097.78
2022-10-20T20:26:33.595Z,98097.03
2022-10-20T20:29:00.629Z,98083.25
2022-10-20T20:31:27.821Z,98075.94
2022-10-20T20:33:56.593Z,98075.78
2022-10-20T20:36:26.580Z,98069.19
2022-10-20T20:38:56.654Z,98055.81
2022-10-20T20:41:26.531Z,98050.94
2022-10-20T20:43:53.327Z,98050.78
2022-10-20T20:46:23.883Z,98062.91
2022-10-20T20:48:51.142Z,98062.19
2022-10-20T20:51:17.773Z,98042.78
2022-10-20T20:53:44.311Z,98049.00
2022-10-20T20:56:15.477Z,98048.53
2022-10-20T20:58:45.278Z,98054.03
2022-10-20T21:01:14.489Z,98068.03
2022-10-20T21:03:41.635Z,98059.69
2022-10-20T21:06:15.715Z,98066.97
2022-10-20T21:08:47.283Z,98077.28
2022-10-20T21:11:21.330Z,98089.56
2022-10-20T21:13:50.174Z,98086.03
2022-10-20T21:16:25.376Z,98083.53
2022-10-20T21:18:55.434Z,98073.09
2022-10-20T21:21:25.899Z,98068.50
2022-10-20T21:23:53.931Z,98064.78
2022-10-20T21:26:22.258Z,98073.06
2022-10-20T21:28:49.832Z,98061.03
2022-10-20T21:31:20.615Z,98072.69
2022-10-20T21:33:51.594Z,98078.34
2022-10-20T21:36:20.709Z,98080.22
2022-10-20T21:38:47.842Z,98079.25
2022-10-20T21:41:25.343Z,98074.06
2022-10-20T21:43:56.731Z,98073.69
2022-10-20T21:46:30.421Z,98070.44
2022-10-20T21:49:07.285Z,98060.47
2022-10-20T21:51:40.646Z,98058.53
2022-10-20T21:54:12.584Z,98063.41
2022-10-20T21:56:41.796Z,98057.50
2022-10-20T21:59:17.749Z,98061.50
2022-10-20T22:01:44.760Z,98070.31
2022-10-20T22:04:11.513Z,98083.75
2022-10-20T22:06:38.711Z,98081.28
2022-10-20T22:09:07.077Z,98080.72
2022-10-20T22:11:39.563Z,98072.91
2022-10-20T22:14:06.858Z,98074.06
2022-10-20T22:16:40.051Z,98076.19
2022-10-20T22:19:15.711Z,98056.59
2022-10-20T22:21:45.626Z,98057.97
2022-10-20T22:24:12.822Z,98056.00
2022-10-20T22:26:40.624Z,98054.41
2022-10-20T22:29:09.602Z,98054.66
2022-10-20T22:31:38.764Z,98054.38
2022-10-20T22:34:06.246Z,98046.19
2022-10-20T22:36:32.906Z,98053.41
2022-10-20T22:38:59.435Z,98051.22
2022-10-20T22:41:26.040Z,98046.78
2022-10-20T22:43:53.187Z,98044.00
2022-10-20T22:46:19.993Z,98033.69
2022-10-20T22:48:46.547Z,98032.19
2022-10-20T22:51:14.894Z,98033.34
2022-10-20T22:53:42.811Z,98033.91
2022-10-20T22:56:16.941Z,98038.38
2022-10-20T22:58:44.083Z,98037.13
2022-10-20T23:01:15.388Z,98034.22
2022-10-20T23:03:42.399Z,98049.53
2022-10-20T23:06:18.198Z,98043.25
2022-10-20T23:08:52.123Z,98042.31
2022-10-20T23:11:20.122Z,98029.50
2022-10-20T23:13:47.297Z,98029.09
2022-10-20T23:16:15.054Z,98032.69
2022-10-20T23:18:41.691Z,98032.69
2022-10-20T23:21:08.452Z,98031.84
2022-10-20T23:23:37.314Z,98034.97
2022-10-20T23:26:08.463Z,98039.69
2022-10-20T23:28:36.569Z,98042.59
2022-10-20T23:31:19.420Z,98034.66
2022-10-20T23:33:48.378Z,98037.47
2022-10-20T23:36:16.586Z,98044.41
2022-10-20T23:38:43.571Z,98040.53
2022-10-20T23:41:10.195Z,98044.88
2022-10-20T23:46:08.299Z,98044.34
2022-10-20T23:48:35.958Z,98045.06
2022-10-20T23:51:02.482Z,98039.06
2022-10-20T23:53:28.957Z,98033.06
2022-10-20T23:55:55.538Z,98031.84
2022-10-20T23:58:23.087Z,98027.22
